createdAt,value
2023-03-29T00:00:59.495Z,99844.34
2023-03-29T00:02:05.612Z,99843.45
2023-03-29T00:03:11.134Z,99832.02
2023-03-29T00:04:16.730Z,99842.19
2023-03-29T00:05:21.969Z,99839.92
2023-03-29T00:06:27.189Z,99837.34
2023-03-29T00:07:32.358Z,99840.19
2023-03-29T00:08:37.597Z,99840.53
2023-03-29T00:09:42.824Z,99839.88
2023-03-29T00:10:48.069Z,99825.27
2023-03-29T00:11:53.241Z,99839.13
2023-03-29T00:12:58.416Z,99840.98
2023-03-29T00:14:03.610Z,99839.54
2023-03-29T00:15:08.828Z,99841.87
2023-03-29T00:16:14.077Z,99839.81
2023-03-29T00:17:19.352Z,99845.98
2023-03-29T00:18:24.531Z,99844.14
2023-03-29T00:19:29.726Z,99850.11
2023-03-29T00:20:34.952Z,99842.15
2023-03-29T00:21:40.123Z,99841.73
2023-03-29T00:22:45.318Z,99838.65
2023-03-29T00:23:50.537Z,99845.61
2023-03-29T00:24:55.745Z,99839.64
2023-03-29T00:26:00.974Z,99840.67
2023-03-29T00:27:06.201Z,99835.48
2023-03-29T00:28:11.374Z,99844
2023-03-29T00:29:16.550Z,99840.84
2023-03-29T00:30:21.759Z,99850.27
2023-03-29T00:31:27.035Z,99853.02
2023-03-29T00:32:32.397Z,99847.77
2023-03-29T00:33:37.639Z,99853.53
2023-03-29T00:34:42.835Z,99844.61
2023-03-29T00:35:48.196Z,99853.12
2023-03-29T00:36:53.425Z,99848.19
2023-03-29T00:37:58.643Z,99845.58
2023-03-29T00:39:03.846Z,99848.02
2023-03-29T00:40:09.040Z,99845.68
2023-03-29T00:41:14.253Z,99848.94
2023-03-29T00:42:19.461Z,99849.9
2023-03-29T00:43:24.656Z,99839.3
2023-03-29T00:44:29.867Z,99844.62
2023-03-29T00:45:35.055Z,99853.95
2023-03-29T00:46:40.422Z,99851.89
2023-03-29T00:47:45.846Z,99847.33
2023-03-29T00:48:51.099Z,99835.63
2023-03-29T00:49:56.341Z,99851.78
2023-03-29T00:51:02.177Z,99836.75
2023-03-29T00:52:07.765Z,99849.41
2023-03-29T00:53:12.999Z,99848.83
2023-03-29T00:54:18.203Z,99852.67
2023-03-29T00:55:23.406Z,99850.05
2023-03-29T00:56:28.567Z,99847.28
2023-03-29T00:57:33.920Z,99846.48
2023-03-29T00:58:39.133Z,99848.06
2023-03-29T00:59:44.360Z,99846.48
2023-03-29T01:00:49.534Z,99845.78
2023-03-29T01:01:55.173Z,99842
2023-03-29T01:03:00.656Z,99839.63
2023-03-29T01:04:06.129Z,99844.41
2023-03-29T01:05:11.347Z,99837.66
2023-03-29T01:06:16.569Z,99839.59
2023-03-29T01:07:21.789Z,99830.14
2023-03-29T01:08:27.017Z,99827.05
2023-03-29T01:09:32.253Z,99833.42
2023-03-29T01:10:37.462Z,99836.34
2023-03-29T01:11:42.707Z,99836.41
2023-03-29T01:12:47.885Z,99834.96
2023-03-29T01:13:53.087Z,99831.92
2023-03-29T01:14:58.292Z,99823.24
2023-03-29T01:16:03.569Z,99829.64
2023-03-29T01:17:08.792Z,99820.93
2023-03-29T01:18:14.017Z,99827.77
2023-03-29T01:19:19.223Z,99828.49
2023-03-29T01:20:24.443Z,99826.48
2023-03-29T01:21:29.646Z,99825.8
2023-03-29T01:22:34.836Z,99825.97
2023-03-29T01:23:40.045Z,99830.59
2023-03-29T01:24:45.249Z,99828.73
2023-03-29T01:25:50.474Z,99822.89
2023-03-29T01:26:55.692Z,99822.67
2023-03-29T01:28:00.879Z,99824.63
2023-03-29T01:29:06.091Z,99826.93
2023-03-29T01:30:11.321Z,99816.91
2023-03-29T01:31:16.548Z,99823.77
2023-03-29T01:32:21.796Z,99822.5
2023-03-29T01:33:27.017Z,99809.71
2023-03-29T01:34:32.248Z,99826.98
2023-03-29T01:35:37.477Z,99826.44
2023-03-29T01:36:42.691Z,99817.64
2023-03-29T01:37:47.909Z,99824.23
2023-03-29T01:38:53.091Z,99811.55
2023-03-29T01:39:58.307Z,99812.56
2023-03-29T01:41:03.962Z,99822.23
2023-03-29T01:42:09.271Z,99811.23
2023-03-29T01:43:14.503Z,99823.02
2023-03-29T01:44:19.721Z,99821.21
2023-03-29T01:45:24.951Z,99813.69
2023-03-29T01:46:30.313Z,99826.45
2023-03-29T01:47:35.648Z,99826.17
2023-03-29T01:48:40.929Z,99817.14
2023-03-29T01:49:46.141Z,99820.58
2023-03-29T01:50:51.358Z,99807.12
2023-03-29T01:51:56.549Z,99809.05
2023-03-29T01:53:01.738Z,99820.23
2023-03-29T01:54:06.960Z,99808.98
2023-03-29T01:55:12.293Z,99809.98
2023-03-29T01:56:17.726Z,99814.88
2023-03-29T01:57:23.054Z,99805.96
2023-03-29T01:58:28.312Z,99807.87
2023-03-29T01:59:33.561Z,99813.3
2023-03-29T02:00:38.779Z,99806.53
2023-03-29T02:01:44.292Z,99815.34
2023-03-29T02:02:49.730Z,99812.17
2023-03-29T02:03:55.061Z,99811.02
2023-03-29T02:05:00.288Z,99818.72
2023-03-29T02:06:05.504Z,99806.19
2023-03-29T02:07:10.707Z,99811.37
2023-03-29T02:08:15.900Z,99818.02
2023-03-29T02:09:21.094Z,99816.09
2023-03-29T02:10:26.380Z,99813.75
2023-03-29T02:11:31.587Z,99815.52
2023-03-29T02:12:36.781Z,99817.09
2023-03-29T02:13:41.982Z,99816.2
2023-03-29T02:14:47.226Z,99809.67
2023-03-29T02:15:52.566Z,99812.53
2023-03-29T02:16:57.821Z,99812.42
2023-03-29T02:18:03.093Z,99809.98
2023-03-29T02:19:08.374Z,99809.28
2023-03-29T02:20:13.598Z,99814.39
2023-03-29T02:21:18.839Z,99819.17
2023-03-29T02:22:24.125Z,99806.64
2023-03-29T02:23:29.316Z,99818.89
2023-03-29T02:24:34.506Z,99817.95
2023-03-29T02:25:39.816Z,99817.19
2023-03-29T02:26:45.117Z,99820.98
2023-03-29T02:27:50.306Z,99817.19
2023-03-29T02:28:55.537Z,99817.29
2023-03-29T02:30:00.761Z,99814.79
2023-03-29T02:31:06.521Z,99817.14
2023-03-29T02:32:11.862Z,99815.85
2023-03-29T02:33:17.105Z,99816.55
2023-03-29T02:34:22.368Z,99808.97
2023-03-29T02:35:27.555Z,99819.7
2023-03-29T02:36:32.746Z,99815.52
2023-03-29T02:37:37.924Z,99806.47
2023-03-29T02:38:43.130Z,99813.13
2023-03-29T02:39:48.338Z,99817.89
2023-03-29T02:40:53.585Z,99817.37
2023-03-29T02:41:58.786Z,99820.22
2023-03-29T02:43:04.010Z,99810.78
2023-03-29T02:44:09.206Z,99808.81
2023-03-29T02:45:14.517Z,99820.7
2023-03-29T02:46:19.776Z,99822.5
2023-03-29T02:47:25.184Z,99817.24
2023-03-29T02:48:30.459Z,99814.92
2023-03-29T02:49:35.670Z,99819.81
2023-03-29T02:50:40.868Z,99812.41
2023-03-29T02:51:46.067Z,99813.11
2023-03-29T02:52:51.302Z,99820.09
2023-03-29T02:53:56.531Z,99812.68
2023-03-29T02:55:01.757Z,99809.22
2023-03-29T02:56:06.984Z,99812.31
2023-03-29T02:57:12.351Z,99813.91
2023-03-29T02:58:17.745Z,99815.06
2023-03-29T02:59:22.947Z,99808.31
2023-03-29T03:00:28.152Z,99813.28
2023-03-29T03:01:33.425Z,99810.63
2023-03-29T03:02:38.862Z,99813.8
2023-03-29T03:03:44.664Z,99807.61
2023-03-29T03:04:50.141Z,99808.48
2023-03-29T03:05:55.371Z,99815.12
2023-03-29T03:07:00.588Z,99809
2023-03-29T03:08:05.934Z,99809.94
2023-03-29T03:09:11.188Z,99812.08
2023-03-29T03:10:16.403Z,99812.94
2023-03-29T03:11:21.615Z,99805.71
2023-03-29T03:12:27.000Z,99815
2023-03-29T03:13:32.298Z,99804.14
2023-03-29T03:14:37.509Z,99810.64
2023-03-29T03:15:42.845Z,99814.71
2023-03-29T03:16:48.293Z,99812.29
2023-03-29T03:17:53.646Z,99818.81
2023-03-29T03:18:58.968Z,99815.83
2023-03-29T03:20:04.205Z,99819.64
2023-03-29T03:21:09.417Z,99818.03
2023-03-29T03:22:14.623Z,99814.08
2023-03-29T03:23:19.848Z,99811.17
2023-03-29T03:24:25.040Z,99819.91
2023-03-29T03:25:30.273Z,99816.63
2023-03-29T03:26:35.648Z,99819.34
2023-03-29T03:27:40.837Z,99817.97
2023-03-29T03:28:46.005Z,99824.2
2023-03-29T03:29:51.200Z,99820.21
2023-03-29T03:30:56.443Z,99815.77
2023-03-29T03:32:01.699Z,99813.88
2023-03-29T03:33:07.102Z,99820.73
2023-03-29T03:34:12.289Z,99820.73
2023-03-29T03:35:17.482Z,99814.62
2023-03-29T03:36:22.698Z,99821.97
2023-03-29T03:37:27.936Z,99818.23
2023-03-29T03:38:33.208Z,99817.97
2023-03-29T03:39:38.412Z,99816.25
2023-03-29T03:40:43.610Z,99819.68
2023-03-29T03:41:48.868Z,99818.73
2023-03-29T03:42:54.092Z,99830.23
2023-03-29T03:43:59.257Z,99832.5
2023-03-29T03:45:04.476Z,99827.5
2023-03-29T03:46:09.936Z,99824.06
2023-03-29T03:47:15.303Z,99822.34
2023-03-29T03:48:20.550Z,99821.17
2023-03-29T03:49:25.747Z,99817.92
2023-03-29T03:50:30.926Z,99823.63
2023-03-29T03:51:36.133Z,99826.61
2023-03-29T03:52:41.508Z,99833.95
2023-03-29T03:53:46.747Z,99816.83
2023-03-29T03:54:51.996Z,99831.11
2023-03-29T03:55:57.249Z,99820.84
2023-03-29T03:57:02.604Z,99823.7
2023-03-29T03:58:07.920Z,99833.33
2023-03-29T03:59:13.127Z,99830.48
2023-03-29T04:00:18.355Z,99828.99
2023-03-29T04:01:23.635Z,99836.19
2023-03-29T04:02:28.983Z,99836.3
2023-03-29T04:03:34.392Z,99842.56
2023-03-29T04:04:39.706Z,99842.81
2023-03-29T04:05:44.897Z,99837.59
2023-03-29T04:06:50.093Z,99834.31
2023-03-29T04:07:55.291Z,99839.67
2023-03-29T04:09:00.480Z,99841.3
2023-03-29T04:10:05.679Z,99831.56
2023-03-29T04:11:10.885Z,99838.34
2023-03-29T04:12:16.122Z,99845.39
2023-03-29T04:13:21.309Z,99832.22
2023-03-29T04:14:26.559Z,99825.99
2023-03-29T04:15:31.818Z,99837.4
2023-03-29T04:16:37.050Z,99842.31
2023-03-29T04:17:42.529Z,99829.38
2023-03-29T04:18:47.983Z,99838.3
2023-03-29T04:19:53.241Z,99835.38
2023-03-29T04:20:58.417Z,99831.83
2023-03-29T04:22:03.844Z,99836.01
2023-03-29T04:23:09.058Z,99838.58
2023-03-29T04:24:14.243Z,99840.85
2023-03-29T04:25:19.423Z,99832.22
2023-03-29T04:26:24.610Z,99830.53
2023-03-29T04:27:29.821Z,99826.47
2023-03-29T04:28:35.019Z,99826.16
2023-03-29T04:29:40.216Z,99831.58
2023-03-29T04:30:45.411Z,99832.58
2023-03-29T04:31:50.840Z,99829.25
2023-03-29T04:32:56.335Z,99831.11
2023-03-29T04:34:02.045Z,99833.27
2023-03-29T04:35:07.285Z,99832.52
2023-03-29T04:36:14.080Z,99825.36
2023-03-29T04:37:19.405Z,99825.52
2023-03-29T04:38:24.940Z,99834.8
2023-03-29T04:39:30.134Z,99826.22
2023-03-29T04:40:35.344Z,99822.97
2023-03-29T04:41:40.622Z,99823.56
2023-03-29T04:42:45.838Z,99829.9
2023-03-29T04:43:51.059Z,99836.42
2023-03-29T04:44:56.293Z,99833.1
2023-03-29T04:46:01.646Z,99831.66
2023-03-29T04:47:06.954Z,99834.03
2023-03-29T04:48:12.238Z,99825.3
2023-03-29T04:49:17.471Z,99822.09
2023-03-29T04:50:22.643Z,99833.28
2023-03-29T04:51:27.834Z,99835.96
2023-03-29T04:52:33.088Z,99828.48
2023-03-29T04:53:38.408Z,99832.58
2023-03-29T04:54:43.671Z,99825.98
2023-03-29T04:55:48.908Z,99826.29
2023-03-29T04:56:54.113Z,99830.7
2023-03-29T04:57:59.445Z,99827.73
2023-03-29T04:59:04.669Z,99825.69
2023-03-29T05:00:09.914Z,99822.31
2023-03-29T05:01:15.114Z,99815.97
2023-03-29T05:02:20.297Z,99808.77
2023-03-29T05:03:25.598Z,99813.26
2023-03-29T05:04:30.919Z,99823.08
2023-03-29T05:05:36.139Z,99819.02
2023-03-29T05:06:41.323Z,99816.88
2023-03-29T05:07:46.551Z,99808.52
2023-03-29T05:08:51.779Z,99821.77
2023-03-29T05:09:56.963Z,99820.02
2023-03-29T05:11:02.664Z,99813.55
2023-03-29T05:12:08.296Z,99819.7
2023-03-29T05:13:13.488Z,99818.22
2023-03-29T05:14:18.730Z,99813.32
2023-03-29T05:15:23.941Z,99815.48
2023-03-29T05:16:29.194Z,99813.32
2023-03-29T05:17:34.539Z,99816.7
2023-03-29T05:18:39.815Z,99815.03
2023-03-29T05:19:45.025Z,99811.77
2023-03-29T05:20:50.200Z,99819.52
2023-03-29T05:21:55.401Z,99812.05
2023-03-29T05:23:00.700Z,99814.39
2023-03-29T05:24:05.929Z,99810.43
2023-03-29T05:25:11.165Z,99817.7
2023-03-29T05:26:16.395Z,99817.19
2023-03-29T05:27:21.596Z,99817.24
2023-03-29T05:28:26.892Z,99820.33
2023-03-29T05:29:32.064Z,99810.67
2023-03-29T05:30:37.270Z,99825.36
2023-03-29T05:31:42.604Z,99823.79
2023-03-29T05:32:48.001Z,99829.67
2023-03-29T05:33:53.395Z,99816.42
2023-03-29T05:34:58.593Z,99821.09
2023-03-29T05:36:03.885Z,99816.78
2023-03-29T05:37:09.384Z,99816.55
2023-03-29T05:38:14.703Z,99823.8
2023-03-29T05:39:19.889Z,99815.57
2023-03-29T05:40:25.071Z,99827.28
2023-03-29T05:41:30.298Z,99822.69
2023-03-29T05:42:35.498Z,99827.15
2023-03-29T05:43:40.698Z,99827.33
2023-03-29T05:44:45.882Z,99828.33
2023-03-29T05:45:51.343Z,99817.72
2023-03-29T05:46:56.731Z,99821.58
2023-03-29T05:48:02.247Z,99825.94
2023-03-29T05:49:07.501Z,99819.98
2023-03-29T05:50:12.784Z,99816.89
2023-03-29T05:51:17.960Z,99813.13
2023-03-29T05:52:23.192Z,99814.47
2023-03-29T05:53:28.377Z,99826.06
2023-03-29T05:54:33.548Z,99829.44
2023-03-29T05:55:38.762Z,99831.19
2023-03-29T05:56:44.076Z,99833.05
2023-03-29T05:57:49.406Z,99831.89
2023-03-29T05:58:56.227Z,99829.67
2023-03-29T06:00:01.483Z,99823.25
2023-03-29T06:01:06.658Z,99826.34
2023-03-29T06:02:11.915Z,99836.53
2023-03-29T06:03:21.052Z,99833.1
2023-03-29T06:04:27.117Z,99825.11
2023-03-29T06:05:32.548Z,99828.8
2023-03-29T06:06:37.772Z,99823.95
2023-03-29T06:07:42.979Z,99821.86
2023-03-29T06:08:48.204Z,99832.45
2023-03-29T06:09:53.428Z,99829.84
2023-03-29T06:10:58.718Z,99830.77
2023-03-29T06:12:06.294Z,99826.45
2023-03-29T06:13:11.493Z,99825.36
2023-03-29T06:14:16.709Z,99830.23
2023-03-29T06:15:21.953Z,99826.52
2023-03-29T06:16:27.192Z,99830.64
2023-03-29T06:17:32.470Z,99830.31
2023-03-29T06:18:37.748Z,99831.98
2023-03-29T06:19:43.009Z,99830.72
2023-03-29T06:20:48.254Z,99836.19
2023-03-29T06:21:53.457Z,99829.77
2023-03-29T06:22:58.787Z,99823.35
2023-03-29T06:24:04.137Z,99835.26
2023-03-29T06:25:09.569Z,99834.95
2023-03-29T06:26:14.792Z,99832.45
2023-03-29T06:27:20.009Z,99831.11
2023-03-29T06:28:25.215Z,99828.27
2023-03-29T06:29:30.417Z,99825.35
2023-03-29T06:30:35.629Z,99829.84
2023-03-29T06:31:41.076Z,99830.28
2023-03-29T06:32:46.569Z,99836.54
2023-03-29T06:33:51.837Z,99823.88
2023-03-29T06:34:57.105Z,99829.99
2023-03-29T06:36:02.438Z,99833.97
2023-03-29T06:37:07.732Z,99833.22
2023-03-29T06:38:12.937Z,99837.65
2023-03-29T06:39:18.117Z,99836.3
2023-03-29T06:40:23.334Z,99836.07
2023-03-29T06:41:28.595Z,99841.25
2023-03-29T06:42:34.841Z,99836.82
2023-03-29T06:43:40.057Z,99843.8
2023-03-29T06:44:45.366Z,99830.34
2023-03-29T06:45:50.587Z,99840.95
2023-03-29T06:46:55.861Z,99837.2
2023-03-29T06:48:01.226Z,99836.53
2023-03-29T06:49:06.467Z,99841.43
2023-03-29T06:50:11.725Z,99844.11
2023-03-29T06:51:16.979Z,99841.71
2023-03-29T06:52:23.992Z,99847
2023-03-29T06:53:29.220Z,99835.4
2023-03-29T06:54:34.462Z,99848.41
2023-03-29T06:55:39.687Z,99840.78
2023-03-29T06:56:44.985Z,99831.87
2023-03-29T06:57:50.486Z,99848.93
2023-03-29T06:58:55.716Z,99834.41
2023-03-29T07:00:00.915Z,99846.42
2023-03-29T07:01:06.921Z,99843.57
2023-03-29T07:02:12.607Z,99837.84
2023-03-29T07:03:18.028Z,99838.84
2023-03-29T07:04:23.305Z,99852.12
2023-03-29T07:05:28.988Z,99844.13
2023-03-29T07:06:34.234Z,99845.6
2023-03-29T07:07:39.521Z,99849.21
2023-03-29T07:08:44.902Z,99851.38
2023-03-29T07:09:50.146Z,99851.03
2023-03-29T07:10:55.402Z,99839.88
2023-03-29T07:12:00.595Z,99853.23
2023-03-29T07:13:05.851Z,99851.48
2023-03-29T07:14:11.086Z,99847.35
2023-03-29T07:15:16.319Z,99844.31
2023-03-29T07:16:21.636Z,99856.32
2023-03-29T07:17:26.908Z,99846.98
2023-03-29T07:18:32.143Z,99853.69
2023-03-29T07:19:37.346Z,99859
2023-03-29T07:20:42.632Z,99860.75
2023-03-29T07:21:47.856Z,99857.33
2023-03-29T07:22:53.058Z,99848.55
2023-03-29T07:23:58.263Z,99848.55
2023-03-29T07:25:03.547Z,99853.92
2023-03-29T07:26:08.784Z,99855.67
2023-03-29T07:27:13.996Z,99852.48
2023-03-29T07:28:19.196Z,99851.96
2023-03-29T07:29:24.391Z,99846.38
2023-03-29T07:30:32.779Z,99851.55
2023-03-29T07:31:37.982Z,99842.63
2023-03-29T07:32:43.320Z,99851.31
2023-03-29T07:33:48.835Z,99852.06
2023-03-29T07:35:59.818Z,99841.95
2023-03-29T07:37:05.107Z,99844.55
2023-03-29T07:38:10.415Z,99846.37
2023-03-29T07:39:15.656Z,99848.97
2023-03-29T07:40:20.874Z,99840.19
2023-03-29T07:41:26.109Z,99838.27
2023-03-29T07:42:31.378Z,99845.89
2023-03-29T07:43:36.637Z,99834.25
2023-03-29T07:44:41.816Z,99840.59
2023-03-29T07:45:47.064Z,99834.02
2023-03-29T07:46:52.388Z,99835.77
2023-03-29T07:47:57.817Z,99836.99
2023-03-29T07:49:03.425Z,99837.52
2023-03-29T07:50:08.664Z,99840.19
2023-03-29T07:51:13.863Z,99836.68
2023-03-29T07:52:19.097Z,99830.41
2023-03-29T07:53:24.439Z,99838.84
2023-03-29T07:54:29.650Z,99830.89
2023-03-29T07:55:34.870Z,99840.29
2023-03-29T07:56:40.147Z,99842.45
2023-03-29T07:57:45.486Z,99842.45
2023-03-29T07:58:50.707Z,99836.36
2023-03-29T07:59:55.938Z,99836.18
2023-03-29T08:01:01.812Z,99835.23
2023-03-29T08:02:07.587Z,99839.67
2023-03-29T08:03:13.071Z,99835.23
2023-03-29T08:04:18.769Z,99826.39
2023-03-29T08:05:41.595Z,99832.15
2023-03-29T08:06:47.092Z,99829.47
2023-03-29T08:07:52.308Z,99828.38
2023-03-29T08:08:57.567Z,99829.64
2023-03-29T08:10:02.888Z,99825.04
2023-03-29T08:11:08.110Z,99819.28
2023-03-29T08:12:13.330Z,99812.14
2023-03-29T08:13:18.522Z,99824.63
2023-03-29T08:14:23.759Z,99817.41
2023-03-29T08:15:28.954Z,99821.43
2023-03-29T08:16:34.183Z,99819.34
2023-03-29T08:17:39.481Z,99817.94
2023-03-29T08:18:44.788Z,99815.66
2023-03-29T08:19:52.708Z,99817
2023-03-29T08:20:57.948Z,99810.48
2023-03-29T08:22:03.250Z,99805.89
2023-03-29T08:23:08.499Z,99812.47
2023-03-29T08:24:13.700Z,99812.56
2023-03-29T08:25:18.895Z,99806.8
2023-03-29T08:26:24.085Z,99817.17
2023-03-29T08:27:29.275Z,99809.56
2023-03-29T08:28:34.456Z,99817
2023-03-29T08:29:39.653Z,99812.23
2023-03-29T08:30:44.913Z,99817.92
2023-03-29T08:31:50.179Z,99816.59
2023-03-29T08:32:56.849Z,99817.41
2023-03-29T08:34:02.283Z,99824.11
2023-03-29T08:35:07.529Z,99807.23
2023-03-29T08:36:12.833Z,99813.91
2023-03-29T08:37:18.075Z,99808.56
2023-03-29T08:38:23.274Z,99807.17
2023-03-29T08:39:28.600Z,99814.41
2023-03-29T08:40:34.137Z,99808.63
2023-03-29T08:41:39.631Z,99810.81
2023-03-29T08:42:45.073Z,99801.42
2023-03-29T08:43:50.529Z,99807.39
2023-03-29T08:44:56.044Z,99803.78
2023-03-29T08:46:01.684Z,99798.27
2023-03-29T08:47:07.250Z,99804.44
2023-03-29T08:48:12.811Z,99807.96
2023-03-29T08:49:18.250Z,99801.63
2023-03-29T08:50:23.747Z,99809.38
2023-03-29T08:51:29.226Z,99798.95
2023-03-29T08:52:34.693Z,99803.85
2023-03-29T08:53:40.145Z,99804.12
2023-03-29T08:54:45.657Z,99800.69
2023-03-29T08:55:51.157Z,99801.92
2023-03-29T08:56:56.693Z,99794.31
2023-03-29T08:58:02.198Z,99793.19
2023-03-29T08:59:07.711Z,99794.55
2023-03-29T09:00:13.257Z,99802.27
2023-03-29T09:01:18.800Z,99792.98
2023-03-29T09:02:24.618Z,99788.65
2023-03-29T09:03:30.801Z,99790.05
2023-03-29T09:04:36.517Z,99796.08
2023-03-29T09:05:42.008Z,99786.8
2023-03-29T09:06:47.426Z,99793.41
2023-03-29T09:07:52.894Z,99792.99
2023-03-29T09:08:58.327Z,99781.02
2023-03-29T09:10:03.806Z,99784.09
2023-03-29T09:11:09.401Z,99782.34
2023-03-29T09:12:14.939Z,99784.84
2023-03-29T09:13:20.663Z,99782.06
2023-03-29T09:14:26.435Z,99785.69
2023-03-29T09:15:32.077Z,99790.31
2023-03-29T09:16:37.889Z,99783.92
2023-03-29T09:17:43.525Z,99787.94
2023-03-29T09:18:50.229Z,99791.95
2023-03-29T09:19:55.776Z,99783.84
2023-03-29T09:21:01.799Z,99780.23
2023-03-29T09:22:07.619Z,99776.4
2023-03-29T09:23:13.153Z,99769.2
2023-03-29T09:24:18.679Z,99775.13
2023-03-29T09:25:24.234Z,99779.08
2023-03-29T09:26:29.943Z,99779.83
2023-03-29T09:27:35.616Z,99774.38
2023-03-29T09:28:41.376Z,99777.56
2023-03-29T09:29:49.442Z,99772.4
2023-03-29T09:30:55.037Z,99777.86
2023-03-29T09:32:00.680Z,99772.61
2023-03-29T09:33:06.573Z,99764.58
2023-03-29T09:34:14.534Z,99766.33
2023-03-29T09:35:20.834Z,99759.5
2023-03-29T09:36:26.496Z,99756.81
2023-03-29T09:37:32.134Z,99759.83
2023-03-29T09:38:37.751Z,99754.54
2023-03-29T09:39:43.340Z,99755.29
2023-03-29T09:40:48.896Z,99766.5
2023-03-29T09:41:54.837Z,99767.33
2023-03-29T09:43:00.473Z,99758.31
2023-03-29T09:44:06.126Z,99758.28
2023-03-29T09:45:16.996Z,99763.64
2023-03-29T09:46:22.915Z,99753.44
2023-03-29T09:47:28.847Z,99759.73
2023-03-29T09:48:34.516Z,99755.29
2023-03-29T09:49:40.629Z,99765.39
2023-03-29T09:50:46.294Z,99761.38
2023-03-29T09:51:52.011Z,99760.97
2023-03-29T09:52:58.399Z,99750.52
2023-03-29T09:54:04.128Z,99755.22
2023-03-29T09:55:10.401Z,99764.05
2023-03-29T09:56:16.397Z,99754.36
2023-03-29T09:57:22.098Z,99763.54
2023-03-29T09:58:27.749Z,99753.93
2023-03-29T09:59:33.414Z,99754.96
2023-03-29T10:00:38.705Z,99761.09
2023-03-29T10:01:44.022Z,99755.73
2023-03-29T10:02:49.381Z,99746.77
2023-03-29T10:03:54.776Z,99747.63
2023-03-29T10:05:00.248Z,99745.42
2023-03-29T10:06:05.578Z,99745.89
2023-03-29T10:07:10.805Z,99734.12
2023-03-29T10:08:19.564Z,99748.45
2023-03-29T10:09:24.989Z,99750.37
2023-03-29T10:10:30.226Z,99737.08
2023-03-29T10:11:35.480Z,99745.88
2023-03-29T10:12:40.803Z,99745.53
2023-03-29T10:13:46.041Z,99747.39
2023-03-29T10:14:54.821Z,99755.14
2023-03-29T10:16:00.063Z,99750.71
2023-03-29T10:17:05.436Z,99749.89
2023-03-29T10:18:10.742Z,99739.12
2023-03-29T10:19:16.037Z,99740.07
2023-03-29T10:20:21.281Z,99735.81
2023-03-29T10:21:26.487Z,99733.48
2023-03-29T10:22:31.681Z,99741.46
2023-03-29T10:23:36.923Z,99733.83
2023-03-29T10:24:42.135Z,99737.55
2023-03-29T10:25:47.355Z,99737.44
2023-03-29T10:26:52.568Z,99725.44
2023-03-29T10:27:57.759Z,99738.27
2023-03-29T10:29:03.003Z,99734.34
2023-03-29T10:30:08.315Z,99732.13
2023-03-29T10:31:14.184Z,99733.13
2023-03-29T10:32:21.857Z,99744.94
2023-03-29T10:33:27.240Z,99740.59
2023-03-29T10:34:32.467Z,99732.36
2023-03-29T10:35:37.776Z,99733.11
2023-03-29T10:36:43.102Z,99725.2
2023-03-29T10:37:48.503Z,99730.73
2023-03-29T10:38:53.679Z,99719.02
2023-03-29T10:39:58.916Z,99717.58
2023-03-29T10:41:04.482Z,99728.23
2023-03-29T10:42:09.791Z,99724.97
2023-03-29T10:43:15.008Z,99723.96
2023-03-29T10:44:20.190Z,99714.2
2023-03-29T10:45:25.372Z,99726.54
2023-03-29T10:46:30.676Z,99717.16
2023-03-29T10:47:36.028Z,99720.77
2023-03-29T10:48:41.230Z,99713.32
2023-03-29T10:49:46.751Z,99714.58
2023-03-29T10:50:54.762Z,99716.34
2023-03-29T10:51:59.939Z,99715.92
2023-03-29T10:53:05.180Z,99714.48
2023-03-29T10:54:10.398Z,99714.89
2023-03-29T10:55:15.586Z,99720.66
2023-03-29T10:56:20.777Z,99713.37
2023-03-29T10:57:26.073Z,99711.28
2023-03-29T10:58:31.395Z,99714.89
2023-03-29T10:59:36.650Z,99716.41
2023-03-29T11:00:41.859Z,99700.66
2023-03-29T11:01:47.277Z,99703.86
2023-03-29T11:02:52.870Z,99703.34
2023-03-29T11:03:58.566Z,99708.7
2023-03-29T11:05:04.067Z,99701.83
2023-03-29T11:06:09.241Z,99700.07
2023-03-29T11:07:14.447Z,99699.33
2023-03-29T11:08:19.670Z,99698.4
2023-03-29T11:09:24.851Z,99696.87
2023-03-29T11:10:30.101Z,99692.52
2023-03-29T11:11:35.296Z,99692.11
2023-03-29T11:12:40.510Z,99687.63
2023-03-29T11:13:45.765Z,99692.52
2023-03-29T11:14:50.992Z,99696.77
2023-03-29T11:15:56.274Z,99681.86
2023-03-29T11:17:01.548Z,99693.78
2023-03-29T11:18:06.892Z,99695.13
2023-03-29T11:19:12.154Z,99695.53
2023-03-29T11:20:17.440Z,99689.35
2023-03-29T11:21:22.630Z,99680.44
2023-03-29T11:22:27.831Z,99676.5
2023-03-29T11:23:33.028Z,99687.78
2023-03-29T11:24:38.237Z,99684.46
2023-03-29T11:25:43.497Z,99685.64
2023-03-29T11:26:48.735Z,99679.41
2023-03-29T11:27:53.966Z,99684.7
2023-03-29T11:28:59.159Z,99681.09
2023-03-29T11:30:04.402Z,99681.62
2023-03-29T11:31:09.678Z,99671.06
2023-03-29T11:32:14.886Z,99675.95
2023-03-29T11:33:20.093Z,99675.02
2023-03-29T11:34:25.349Z,99665.84
2023-03-29T11:35:30.551Z,99671.19
2023-03-29T11:36:35.832Z,99666.13
2023-03-29T11:37:41.041Z,99661.7
2023-03-29T11:38:46.776Z,99658.9
2023-03-29T11:39:51.970Z,99662.03
2023-03-29T11:40:57.167Z,99659.43
2023-03-29T11:42:02.376Z,99651.86
2023-03-29T11:43:07.571Z,99663.04
2023-03-29T11:44:12.791Z,99657.68
2023-03-29T11:45:18.144Z,99648.53
2023-03-29T11:46:23.497Z,99642
2023-03-29T11:47:28.890Z,99639.58
2023-03-29T11:48:34.234Z,99653.25
2023-03-29T11:49:39.408Z,99651.27
2023-03-29T11:50:44.597Z,99652.42
2023-03-29T11:51:49.800Z,99651.5
2023-03-29T11:52:55.028Z,99644.03
2023-03-29T11:54:00.272Z,99649.52
2023-03-29T11:55:05.469Z,99647.84
2023-03-29T11:56:10.774Z,99649.82
2023-03-29T11:57:16.083Z,99642.77
2023-03-29T11:58:21.327Z,99641.77
2023-03-29T11:59:26.603Z,99654.52
2023-03-29T12:00:31.796Z,99643.98
2023-03-29T12:01:37.132Z,99640.44
2023-03-29T12:02:42.730Z,99635.25
2023-03-29T12:03:48.785Z,99644.8
2023-03-29T12:04:54.186Z,99642
2023-03-29T12:05:59.377Z,99587.16
2023-03-29T12:07:04.555Z,99633.67
2023-03-29T12:08:09.773Z,99635.01
2023-03-29T12:09:17.964Z,99640.78
2023-03-29T12:10:23.182Z,99625.88
2023-03-29T12:11:28.420Z,99640.44
2023-03-29T12:12:33.655Z,99630.76
2023-03-29T12:13:38.866Z,99630.24
2023-03-29T12:14:44.120Z,99623.78
2023-03-29T12:15:49.457Z,99634.44
2023-03-29T12:16:54.873Z,99619.36
2023-03-29T12:18:00.330Z,99631.69
2023-03-29T12:19:05.599Z,99618.84
2023-03-29T12:20:10.797Z,99621.11
2023-03-29T12:21:16.011Z,99618.47
2023-03-29T12:22:21.260Z,99624.42
2023-03-29T12:23:26.487Z,99621.75
2023-03-29T12:24:31.681Z,99620.59
2023-03-29T12:25:36.912Z,99615.22
2023-03-29T12:26:42.122Z,99622.38
2023-03-29T12:27:47.373Z,99615.16
2023-03-29T12:28:52.553Z,99604.34
2023-03-29T12:29:57.735Z,99618.24
2023-03-29T12:31:03.345Z,99611.77
2023-03-29T12:32:09.018Z,99614.56
2023-03-29T12:33:17.094Z,99607.06
2023-03-29T12:34:22.481Z,99610.61
2023-03-29T12:35:27.681Z,99605.55
2023-03-29T12:36:32.927Z,99612.98
2023-03-29T12:37:38.174Z,99611.44
2023-03-29T12:38:43.421Z,99597.47
2023-03-29T12:39:48.603Z,99604.02
2023-03-29T12:40:53.841Z,99601.53
2023-03-29T12:41:59.038Z,99602.34
2023-03-29T12:43:04.267Z,99591.05
2023-03-29T12:44:12.101Z,99599.15
2023-03-29T12:45:17.290Z,99596.35
2023-03-29T12:46:22.610Z,99592.52
2023-03-29T12:47:28.052Z,99593.8
2023-03-29T12:48:34.055Z,99584.06
2023-03-29T12:49:39.325Z,99585.52
2023-03-29T12:50:44.548Z,99584.06
2023-03-29T12:51:49.713Z,99590.88